createdAt,value
2022-10-01T00:00:02.259Z,100.00
2022-10-01T00:05:25.256Z,100.00
2022-10-01T00:10:30.435Z,100.00
2022-10-01T00:15:33.419Z,100.00
2022-10-01T00:20:40.473Z,100.00
2022-10-01T00:25:43.942Z,100.00
2022-10-01T00:30:48.184Z,100.00
2022-10-01T00:35:54.873Z,100.00
2022-10-01T00:40:58.765Z,100.00
2022-10-01T00:46:13.772Z,100.00
2022-10-01T00:51:16.885Z,100.00
2022-10-01T00:56:19.893Z,100.00
2022-10-01T01:01:24.766Z,100.00
2022-10-01T01:06:27.810Z,100.00
2022-10-01T01:11:58.813Z,100.00
2022-10-01T01:17:10.979Z,100.00
2022-10-01T01:22:15.478Z,100.00
2022-10-01T01:27:45.176Z,100.00
2022-10-01T01:33:04.816Z,100.00
2022-10-01T01:38:14.362Z,100.00
2022-10-01T01:43:24.304Z,100.00
2022-10-01T01:48:29.490Z,100.00
2022-10-01T01:53:32.601Z,100.00
2022-10-01T01:58:36.472Z,100.00
2022-10-01T02:03:39.432Z,100.00
2022-10-01T02:08:58.311Z,100.00
2022-10-01T02:14:22.822Z,100.00
2022-10-01T02:19:36.328Z,100.00
2022-10-01T02:24:57.100Z,100.00
2022-10-01T02:30:02.764Z,100.00
2022-10-01T02:35:12.243Z,100.00
2022-10-01T02:40:18.923Z,100.00
2022-10-01T02:45:25.096Z,100.00
2022-10-01T02:50:35.015Z,100.00
2022-10-01T02:55:39.924Z,100.00
2022-10-01T03:00:42.823Z,100.00
2022-10-01T03:05:45.829Z,100.00
2022-10-01T03:10:48.732Z,100.00
2022-10-01T03:15:51.888Z,100.00
2022-10-01T03:20:54.845Z,100.00
2022-10-01T03:25:57.859Z,100.00
2022-10-01T03:31:06.266Z,100.00
2022-10-01T03:36:09.188Z,100.00
2022-10-01T03:41:14.551Z,100.00
2022-10-01T03:46:18.273Z,100.00
2022-10-01T03:51:21.178Z,100.00
2022-10-01T03:56:26.231Z,100.00
2022-10-01T04:01:29.287Z,100.00
2022-10-01T04:06:32.934Z,100.00
2022-10-01T04:11:36.820Z,100.00
2022-10-01T04:16:40.048Z,100.00
2022-10-01T04:21:43.106Z,100.00
2022-10-01T04:26:46.010Z,100.00
2022-10-01T04:31:48.950Z,100.00
2022-10-01T04:36:51.920Z,100.00
2022-10-01T04:41:54.931Z,100.00
2022-10-01T04:46:57.881Z,100.00
2022-10-01T04:52:01.349Z,100.00
2022-10-01T04:57:04.458Z,100.00
2022-10-01T05:02:07.435Z,100.00
2022-10-01T05:07:10.473Z,100.00
2022-10-01T05:12:13.375Z,100.00
2022-10-01T05:17:17.404Z,100.00
2022-10-01T05:22:20.173Z,100.00
2022-10-01T05:27:23.109Z,100.00
2022-10-01T05:32:26.015Z,100.00
2022-10-01T05:37:28.918Z,100.00
2022-10-01T05:42:31.720Z,100.00
2022-10-01T05:47:34.623Z,100.00
2022-10-01T05:52:37.531Z,97.33
2022-10-01T05:57:40.435Z,91.68
2022-10-01T06:02:43.630Z,89.45
2022-10-01T06:07:48.726Z,86.55
2022-10-01T06:12:52.010Z,81.87
2022-10-01T06:17:55.126Z,79.64
2022-10-01T06:22:58.566Z,73.34
2022-10-01T06:28:02.305Z,71.63
2022-10-01T06:33:16.017Z,68.72
2022-10-01T06:38:21.309Z,65.24
2022-10-01T06:43:26.680Z,63.85
2022-10-01T06:48:31.125Z,64.68
2022-10-01T06:53:33.988Z,65.10
2022-10-01T06:58:37.501Z,62.84
2022-10-01T07:03:40.421Z,62.20
2022-10-01T07:08:43.718Z,61.42
2022-10-01T07:13:49.990Z,59.56
2022-10-01T07:18:55.362Z,58.22
2022-10-01T07:23:58.270Z,57.77
2022-10-01T07:29:01.534Z,56.94
2022-10-01T07:34:04.396Z,56.14
2022-10-01T07:39:09.862Z,55.83
2022-10-01T07:44:12.870Z,55.09
2022-10-01T07:49:19.781Z,53.23
2022-10-01T07:54:23.447Z,51.85
2022-10-01T07:59:27.402Z,51.94
2022-10-01T08:04:50.792Z,50.73
2022-10-01T08:09:54.204Z,49.92
2022-10-01T08:14:57.284Z,50.59
2022-10-01T08:20:00.420Z,50.94
2022-10-01T08:25:03.780Z,54.02
2022-10-01T08:30:07.424Z,55.73
2022-10-01T08:35:10.427Z,58.44
2022-10-01T08:40:13.297Z,59.61
2022-10-01T08:45:27.807Z,60.51
2022-10-01T08:50:30.661Z,60.78
2022-10-01T08:55:37.586Z,64.50
2022-10-01T09:00:44.785Z,64.89
2022-10-01T09:05:59.734Z,64.45
2022-10-01T09:11:12.751Z,66.06
2022-10-01T09:16:37.446Z,65.80
2022-10-01T09:21:55.493Z,63.82
2022-10-01T09:26:58.355Z,64.95
2022-10-01T09:32:04.089Z,63.74
2022-10-01T09:37:15.423Z,62.38
2022-10-01T09:42:18.737Z,63.55
2022-10-01T09:47:26.832Z,65.37
2022-10-01T09:52:39.311Z,63.34
2022-10-01T09:57:47.872Z,61.44
2022-10-01T10:02:52.454Z,63.17
2022-10-01T10:08:00.214Z,63.15
2022-10-01T10:13:05.244Z,62.39
2022-10-01T10:18:24.067Z,61.65
2022-10-01T10:23:29.512Z,60.41
2022-10-01T10:28:44.654Z,59.81
2022-10-01T10:33:54.234Z,60.75
2022-10-01T10:38:59.027Z,59.90
2022-10-01T10:44:07.582Z,58.74
2022-10-01T10:49:21.079Z,57.94
2022-10-01T10:54:40.824Z,59.87
2022-10-01T10:59:56.291Z,60.55
2022-10-01T11:05:20.485Z,60.08
2022-10-01T11:10:42.118Z,57.20
2022-10-01T11:16:20.303Z,57.89
2022-10-01T11:21:35.647Z,57.89
2022-10-01T11:26:53.404Z,57.37
2022-10-01T11:32:19.671Z,58.27
2022-10-01T11:37:25.525Z,59.27
2022-10-01T11:42:36.765Z,58.47
2022-10-01T11:47:54.885Z,58.63
2022-10-01T11:53:09.765Z,58.83
2022-10-01T11:58:43.294Z,59.17
2022-10-01T12:03:59.316Z,58.97
2022-10-01T12:09:32.723Z,58.67
2022-10-01T12:14:44.845Z,58.27
2022-10-01T12:19:52.246Z,59.60
2022-10-01T12:24:55.457Z,60.78
2022-10-01T12:30:10.151Z,61.18
2022-10-01T12:35:28.005Z,61.06
2022-10-01T12:40:38.622Z,60.43
2022-10-01T12:45:54.478Z,59.55
2022-10-01T12:51:00.089Z,60.27
2022-10-01T12:56:31.321Z,60.63
2022-10-01T13:02:14.731Z,60.92
2022-10-01T13:07:49.220Z,61.31
2022-10-01T13:13:06.651Z,60.88
2022-10-01T13:18:12.375Z,61.00
2022-10-01T13:23:30.495Z,61.51
2022-10-01T13:28:57.669Z,61.76
2022-10-01T13:34:01.905Z,62.37
2022-10-01T13:39:04.842Z,61.61
2022-10-01T13:44:08.126Z,62.12
2022-10-01T13:49:25.325Z,61.83
2022-10-01T13:54:33.285Z,61.94
2022-10-01T13:59:38.297Z,61.85
2022-10-01T14:04:43.872Z,61.15
2022-10-01T14:09:51.633Z,61.15
2022-10-01T14:15:19.223Z,62.29
2022-10-01T14:20:35.657Z,62.71
2022-10-01T14:26:03.409Z,63.70
2022-10-01T14:31:35.349Z,64.32
2022-10-01T14:36:53.640Z,65.92
2022-10-01T14:41:58.215Z,67.24
2022-10-01T14:47:21.897Z,68.56
2022-10-01T14:52:30.123Z,69.49
2022-10-01T14:58:00.578Z,69.73
2022-10-01T15:03:15.790Z,70.05
2022-10-01T15:08:23.521Z,70.79
2022-10-01T15:13:32.431Z,71.61
2022-10-01T15:18:36.912Z,72.49
2022-10-01T15:23:40.912Z,73.35
2022-10-01T15:28:44.625Z,74.20
2022-10-01T15:33:47.904Z,75.61
2022-10-01T15:38:51.740Z,76.34
2022-10-01T15:43:54.817Z,77.08
2022-10-01T15:49:17.570Z,77.89
2022-10-01T15:54:20.548Z,78.58
2022-10-01T15:59:23.659Z,79.29
2022-10-01T16:04:26.856Z,80.10
2022-10-01T16:09:30.810Z,80.84
2022-10-01T16:14:45.211Z,82.02
2022-10-01T16:19:50.734Z,82.69
2022-10-01T16:25:01.824Z,83.37
2022-10-01T16:30:07.805Z,83.45
2022-10-01T16:35:21.057Z,84.32
2022-10-01T16:40:26.721Z,85.27
2022-10-01T16:45:36.771Z,85.67
2022-10-01T16:50:40.209Z,85.74
2022-10-01T16:55:44.207Z,86.24
2022-10-01T17:00:47.103Z,86.25
2022-10-01T17:05:50.259Z,86.32
2022-10-01T17:10:58.796Z,86.93
2022-10-01T17:16:06.094Z,87.12
2022-10-01T17:21:09.732Z,87.69
2022-10-01T17:26:12.650Z,88.16
2022-10-01T17:31:18.008Z,88.85
2022-10-01T17:36:21.298Z,88.71
2022-10-01T17:41:24.304Z,89.14
2022-10-01T17:46:27.413Z,89.72
2022-10-01T17:51:30.520Z,90.28
2022-10-01T17:56:38.409Z,90.63
2022-10-01T18:01:41.857Z,90.94
2022-10-01T18:06:45.023Z,90.95
2022-10-01T18:11:51.916Z,91.60
2022-10-01T18:16:54.911Z,91.36
2022-10-01T18:21:59.902Z,91.82
2022-10-01T18:27:02.935Z,92.08
2022-10-01T18:32:17.842Z,93.12
2022-10-01T18:37:29.634Z,93.11
2022-10-01T18:42:44.577Z,93.91
2022-10-01T18:47:53.365Z,94.25
2022-10-01T18:53:08.552Z,94.48
2022-10-01T18:58:33.264Z,94.55
2022-10-01T19:04:00.443Z,94.88
2022-10-01T19:09:17.270Z,95.14
2022-10-01T19:14:37.991Z,95.55
2022-10-01T19:19:52.984Z,95.75
2022-10-01T19:25:15.398Z,96.29
2022-10-01T19:30:20.070Z,96.68
2022-10-01T19:35:27.905Z,97.03
2022-10-01T19:40:55.285Z,97.58
2022-10-01T19:46:09.352Z,97.58
2022-10-01T19:51:16.182Z,98.15
2022-10-01T19:56:26.164Z,98.24
2022-10-01T20:01:38.471Z,98.96
2022-10-01T20:06:44.723Z,99.47
2022-10-01T20:12:01.760Z,99.62
2022-10-01T20:17:23.506Z,100.00
2022-10-01T20:22:58.667Z,100.00
2022-10-01T20:28:19.461Z,100.00
2022-10-01T20:33:36.020Z,100.00
2022-10-01T20:38:45.349Z,100.00
2022-10-01T20:43:52.982Z,100.00
2022-10-01T20:49:18.305Z,100.00
2022-10-01T20:54:36.167Z,100.00
2022-10-01T20:59:51.649Z,100.00
2022-10-01T21:05:06.631Z,100.00
2022-10-01T21:10:46.322Z,100.00
2022-10-01T21:16:23.375Z,100.00
2022-10-01T21:21:55.411Z,100.00
2022-10-01T21:27:35.798Z,100.00
2022-10-01T21:33:02.083Z,100.00
2022-10-01T21:38:28.099Z,100.00
2022-10-01T21:44:12.473Z,100.00
2022-10-01T21:49:46.097Z,100.00
2022-10-01T21:55:06.204Z,100.00
2022-10-01T22:00:28.976Z,100.00
2022-10-01T22:05:41.173Z,100.00
2022-10-01T22:10:51.064Z,100.00
2022-10-01T22:15:59.393Z,100.00
2022-10-01T22:21:08.750Z,100.00
2022-10-01T22:26:17.590Z,100.00
2022-10-01T22:31:26.203Z,100.00
2022-10-01T22:36:41.842Z,100.00
2022-10-01T22:41:56.689Z,100.00
2022-10-01T22:47:02.595Z,100.00
2022-10-01T22:52:54.703Z,100.00
2022-10-01T22:58:18.544Z,100.00
2022-10-01T23:03:41.727Z,100.00
2022-10-01T23:09:18.322Z,100.00
2022-10-01T23:14:42.527Z,100.00
2022-10-01T23:20:06.875Z,100.00
2022-10-01T23:25:18.820Z,100.00
2022-10-01T23:30:22.167Z,100.00
2022-10-01T23:35:42.811Z,100.00
2022-10-01T23:40:48.343Z,100.00
2022-10-01T23:46:07.595Z,100.00
2022-10-01T23:51:23.237Z,100.00
2022-10-01T23:56:48.882Z,100.00
